Time;durP1;ratioP1;P1;durP2;ratioP2;P2;SDS_P1;SDS_P2;PMS_P1;PMS_P2;Temp;Humidity;BMP_temperature;BMP_pressure;BME280_temperature;BME280_humidity;BME280_pressure;Samples;Min_cycle;Max_cycle;Signal;HPM_P1;HPM_P2
2023/09/16 00:00:33;;;;;;;7.72;3.20;;;;;;;;;;6104125;28;20182;-90
2023/09/16 00:03:36;;;;;;;6.47;3.67;;;;;;;;;;6134838;28;20055;-90
2023/09/16 00:06:50;;;;;;;5.80;3.30;;;;;;;;;;6089569;28;20058;-90
2023/09/16 00:09:56;;;;;;;5.80;3.45;;;;;;;;;;6147789;28;20040;-90
2023/09/16 00:13:00;;;;;;;7.22;3.35;;;;;;;;;;6104513;28;20042;-90
2023/09/16 00:16:04;;;;;;;5.65;3.38;;;;;;;;;;6104036;28;20105;-90
2023/09/16 00:19:09;;;;;;;4.97;3.50;;;;;;;;;;6120952;28;20066;-90
2023/09/16 00:22:11;;;;;;;6.43;3.70;;;;;;;;;;6096984;28;20043;-90
2023/09/16 00:25:16;;;;;;;5.60;3.63;;;;;;;;;;6121986;28;20113;-90
2023/09/16 00:28:25;;;;;;;5.20;3.58;;;;;;;;;;6092194;28;21415;-90
2023/09/16 00:31:27;;;;;;;5.38;3.40;;;;;;;;;;6132526;28;20039;-91
2023/09/16 00:34:33;;;;;;;5.60;3.25;;;;;;;;;;6138464;28;20054;-89
2023/09/16 00:37:35;;;;;;;5.10;3.58;;;;;;;;;;6125415;28;20051;-90
2023/09/16 00:40:37;;;;;;;5.82;3.38;;;;;;;;;;6134806;28;20101;-90
2023/09/16 00:43:39;;;;;;;5.05;3.10;;;;;;;;;;6112002;28;20077;-90
2023/09/16 00:46:51;;;;;;;4.50;3.38;;;;;;;;;;6127147;28;20556;-89
2023/09/16 00:49:54;;;;;;;7.15;4.22;;;;;;;;;;6127352;28;20035;-90
2023/09/16 00:52:59;;;;;;;5.00;3.13;;;;;;;;;;6122367;28;20047;-90
2023/09/16 00:56:04;;;;;;;6.07;3.25;;;;;;;;;;6140065;28;20526;-89
2023/09/16 00:59:09;;;;;;;7.82;3.67;;;;;;;;;;6124886;28;20413;-89
2023/09/16 01:02:13;;;;;;;6.32;3.30;;;;;;;;;;6118549;28;20043;-89
2023/09/16 01:05:15;;;;;;;4.35;3.38;;;;;;;;;;6128125;28;20130;-90
2023/09/16 01:08:19;;;;;;;4.75;3.38;;;;;;;;;;6106592;28;20517;-90
2023/09/16 01:11:25;;;;;;;5.85;3.60;;;;;;;;;;6099200;28;20210;-89
2023/09/16 01:14:28;;;;;;;6.53;3.47;;;;;;;;;;6127354;28;20128;-89
2023/09/16 01:17:57;;;;;;;5.63;3.35;;;;;;;;;;6105888;28;20138;-89
2023/09/16 01:21:06;;;;;;;4.35;3.28;;;;;;;;;;6102471;28;20097;-89
2023/09/16 01:24:24;;;;;;;6.18;3.92;;;;;;;;;;6116492;28;20101;-90
2023/09/16 01:27:27;;;;;;;5.53;3.53;;;;;;;;;;6122507;28;20491;-90
2023/09/16 01:30:36;;;;;;;6.28;3.75;;;;;;;;;;6092560;28;20059;-89
2023/09/16 01:33:50;;;;;;;7.88;3.90;;;;;;;;;;6118683;28;20051;-89
2023/09/16 01:36:54;;;;;;;5.57;3.25;;;;;;;;;;6121174;28;20050;-89
2023/09/16 01:39:59;;;;;;;7.45;3.67;;;;;;;;;;6118533;28;20039;-89
2023/09/16 01:43:02;;;;;;;5.53;3.33;;;;;;;;;;6132062;28;20044;-89
2023/09/16 01:46:07;;;;;;;8.10;3.50;;;;;;;;;;6123414;28;20047;-89
2023/09/16 01:49:09;;;;;;;7.07;3.90;;;;;;;;;;6108214;28;20406;-89
2023/09/16 01:52:12;;;;;;;5.67;4.27;;;;;;;;;;6130597;28;20413;-89
2023/09/16 01:55:15;;;;;;;7.25;3.72;;;;;;;;;;6128839;28;20043;-89
2023/09/16 01:58:17;;;;;;;5.30;3.13;;;;;;;;;;6115176;28;20541;-89
2023/09/16 02:01:19;;;;;;;5.53;3.20;;;;;;;;;;6124516;28;20058;-89
2023/09/16 02:04:22;;;;;;;5.35;3.22;;;;;;;;;;6098896;28;20470;-90
2023/09/16 02:07:26;;;;;;;6.40;3.30;;;;;;;;;;6149313;28;20039;-89
2023/09/16 02:10:28;;;;;;;5.20;3.60;;;;;;;;;;6160961;28;20047;-89
2023/09/16 02:13:35;;;;;;;7.75;3.78;;;;;;;;;;6137193;28;20046;-89
2023/09/16 02:16:56;;;;;;;8.30;4.50;;;;;;;;;;6126207;28;20122;-89
2023/09/16 02:19:58;;;;;;;6.97;4.10;;;;;;;;;;6127941;28;20047;-89
2023/09/16 02:23:02;;;;;;;6.15;3.75;;;;;;;;;;6122312;28;20054;-90
2023/09/16 02:26:05;;;;;;;5.85;3.70;;;;;;;;;;6111646;28;20058;-89
2023/09/16 02:29:08;;;;;;;7.53;3.85;;;;;;;;;;6117022;28;20043;-91
2023/09/16 02:32:10;;;;;;;5.18;3.67;;;;;;;;;;6097703;28;20292;-90
2023/09/16 02:35:47;;;;;;;8.75;3.85;;;;;;;;;;6141882;28;20051;-89
2023/09/16 02:39:03;;;;;;;6.05;3.45;;;;;;;;;;6101430;28;20044;-89
2023/09/16 02:42:08;;;;;;;6.78;3.42;;;;;;;;;;6107407;28;20126;-90
2023/09/16 02:45:12;;;;;;;4.93;2.97;;;;;;;;;;6110157;28;20055;-91
2023/09/16 02:48:18;;;;;;;5.97;3.60;;;;;;;;;;6115130;28;20055;-89
2023/09/16 02:51:20;;;;;;;6.47;3.92;;;;;;;;;;6080164;28;20055;-89
2023/09/16 02:54:22;;;;;;;6.40;3.90;;;;;;;;;;6129540;28;20139;-89
2023/09/16 02:57:53;;;;;;;6.40;3.55;;;;;;;;;;6137239;28;20043;-89
2023/09/16 03:00:57;;;;;;;4.40;3.40;;;;;;;;;;6122525;28;20106;-89
2023/09/16 03:04:00;;;;;;;5.45;3.13;;;;;;;;;;6125614;28;20113;-89
2023/09/16 03:07:04;;;;;;;6.22;3.80;;;;;;;;;;6121236;28;20090;-89
2023/09/16 03:10:07;;;;;;;6.93;3.75;;;;;;;;;;6114792;28;20049;-89
2023/09/16 03:13:09;;;;;;;8.13;3.80;;;;;;;;;;6114870;28;20043;-89
2023/09/16 03:16:13;;;;;;;4.65;3.22;;;;;;;;;;6125634;28;20043;-90
2023/09/16 03:19:18;;;;;;;6.95;3.58;;;;;;;;;;6109721;28;20134;-89
2023/09/16 03:22:21;;;;;;;6.50;3.42;;;;;;;;;;6131033;28;20055;-88
2023/09/16 03:25:26;;;;;;;5.45;3.25;;;;;;;;;;6118722;28;20047;-89
2023/09/16 03:28:28;;;;;;;4.97;3.25;;;;;;;;;;6111774;28;20050;-89
2023/09/16 03:31:32;;;;;;;7.07;3.78;;;;;;;;;;6088284;28;20350;-89
2023/09/16 03:34:46;;;;;;;6.40;3.42;;;;;;;;;;6099684;28;20415;-90
2023/09/16 03:37:53;;;;;;;5.47;3.63;;;;;;;;;;6083038;28;20548;-90
2023/09/16 03:40:57;;;;;;;5.55;3.10;;;;;;;;;;6086104;28;20054;-90
2023/09/16 03:44:01;;;;;;;5.15;3.42;;;;;;;;;;6052782;28;20137;-89
2023/09/16 03:47:09;;;;;;;7.68;3.50;;;;;;;;;;6117355;28;20078;-90
2023/09/16 03:50:20;;;;;;;6.05;3.15;;;;;;;;;;6104235;28;20043;-89
2023/09/16 03:53:25;;;;;;;6.60;3.53;;;;;;;;;;6103252;28;20506;-89
2023/09/16 03:56:40;;;;;;;6.75;3.30;;;;;;;;;;6127223;28;20043;-90
2023/09/16 03:59:45;;;;;;;4.93;3.50;;;;;;;;;;6121501;28;20043;-89
2023/09/16 04:02:48;;;;;;;5.13;3.53;;;;;;;;;;6077536;28;20549;-89
2023/09/16 04:06:09;;;;;;;6.70;3.95;;;;;;;;;;6118852;28;20577;-90
2023/09/16 04:09:19;;;;;;;6.17;3.83;;;;;;;;;;6133229;28;20039;-90
2023/09/16 04:12:21;;;;;;;6.07;3.53;;;;;;;;;;6114693;28;20197;-90
2023/09/16 04:15:25;;;;;;;7.38;4.05;;;;;;;;;;6096548;28;20444;-89
2023/09/16 04:18:29;;;;;;;5.63;3.65;;;;;;;;;;6113308;28;20482;-89
2023/09/16 04:21:32;;;;;;;5.72;3.20;;;;;;;;;;6082834;28;20043;-90
2023/09/16 04:24:35;;;;;;;;;;;;;;;;;;6102890;28;20143;-90
2023/09/16 04:27:38;;;;;;;5.95;3.80;;;;;;;;;;6150466;28;19945;-90
2023/09/16 04:30:49;;;;;;;6.70;3.53;;;;;;;;;;6092622;28;20043;-89
2023/09/16 04:33:54;;;;;;;4.80;3.40;;;;;;;;;;6146428;28;20529;-91
2023/09/16 04:36:58;;;;;;;4.40;3.30;;;;;;;;;;6097971;28;20043;-88
2023/09/16 04:40:09;;;;;;;7.18;3.42;;;;;;;;;;6140193;28;20046;-91
2023/09/16 04:43:14;;;;;;;5.97;3.38;;;;;;;;;;6145997;28;20054;-90
2023/09/16 04:46:18;;;;;;;9.52;3.83;;;;;;;;;;6129229;28;20231;-89
2023/09/16 04:49:22;;;;;;;5.38;3.75;;;;;;;;;;6105451;28;20051;-89
2023/09/16 04:52:27;;;;;;;5.35;3.55;;;;;;;;;;6103971;28;20062;-89
2023/09/16 04:55:34;;;;;;;4.85;3.53;;;;;;;;;;6115064;28;20054;-89
2023/09/16 04:58:36;;;;;;;4.97;4.00;;;;;;;;;;6124982;28;20368;-86
2023/09/16 05:01:39;;;;;;;5.88;3.75;;;;;;;;;;6106921;28;20046;-86
2023/09/16 05:04:41;;;;;;;4.72;3.30;;;;;;;;;;6124653;28;20050;-86
2023/09/16 05:07:48;;;;;;;7.43;3.80;;;;;;;;;;6119044;28;20059;-86
2023/09/16 05:10:57;;;;;;;9.20;4.18;;;;;;;;;;6122493;28;20336;-87
2023/09/16 05:14:00;;;;;;;7.72;4.07;;;;;;;;;;6108237;28;20225;-87
2023/09/16 05:17:02;;;;;;;9.50;4.18;;;;;;;;;;6092929;28;20054;-86
2023/09/16 05:20:05;;;;;;;7.70;4.27;;;;;;;;;;6142081;28;20054;-86
2023/09/16 05:23:07;;;;;;;7.10;4.35;;;;;;;;;;6137554;28;20051;-86
2023/09/16 05:26:13;;;;;;;9.00;4.03;;;;;;;;;;6132509;28;20194;-87
2023/09/16 05:29:16;;;;;;;11.93;4.60;;;;;;;;;;6152465;28;20164;-86
2023/09/16 05:32:19;;;;;;;5.75;3.80;;;;;;;;;;6116497;28;20058;-86
2023/09/16 05:35:21;;;;;;;6.65;3.88;;;;;;;;;;6108501;28;20050;-87
2023/09/16 05:38:23;;;;;;;7.77;3.90;;;;;;;;;;6119844;28;20054;-86
2023/09/16 05:41:25;;;;;;;8.02;4.10;;;;;;;;;;6117630;28;20055;-86
2023/09/16 05:44:27;;;;;;;6.17;3.93;;;;;;;;;;6136640;28;20107;-86
2023/09/16 05:47:31;;;;;;;7.43;4.35;;;;;;;;;;6115738;28;20786;-87
2023/09/16 05:50:34;;;;;;;7.25;4.05;;;;;;;;;;6129021;28;20437;-86
2023/09/16 05:53:39;;;;;;;5.70;3.65;;;;;;;;;;6104925;28;20055;-87
2023/09/16 05:56:42;;;;;;;7.43;4.18;;;;;;;;;;6139417;28;20044;-85
2023/09/16 06:00:01;;;;;;;6.15;4.07;;;;;;;;;;6119950;28;20054;-85
2023/09/16 06:03:13;;;;;;;7.88;3.85;;;;;;;;;;6130706;28;20192;-85
2023/09/16 06:06:19;;;;;;;5.53;4.22;;;;;;;;;;6141811;28;20051;-86
2023/09/16 06:09:21;;;;;;;7.82;4.22;;;;;;;;;;6125895;28;20100;-85
2023/09/16 06:12:23;;;;;;;7.10;4.20;;;;;;;;;;6111838;28;20568;-85
2023/09/16 06:15:25;;;;;;;6.60;4.63;;;;;;;;;;6136005;28;20405;-86
2023/09/16 06:18:27;;;;;;;6.45;4.22;;;;;;;;;;6124412;28;20122;-86
2023/09/16 06:21:30;;;;;;;6.20;4.90;;;;;;;;;;6129967;28;20054;-86
2023/09/16 06:24:32;;;;;;;10.65;5.00;;;;;;;;;;6130353;28;20434;-85
2023/09/16 06:27:34;;;;;;;10.15;4.90;;;;;;;;;;6131067;28;20047;-86
2023/09/16 06:30:36;;;;;;;6.05;4.05;;;;;;;;;;6146769;28;20064;-86
2023/09/16 06:33:38;;;;;;;7.50;4.70;;;;;;;;;;6146749;28;20055;-85
2023/09/16 06:36:41;;;;;;;6.28;4.25;;;;;;;;;;6114647;28;20048;-86
2023/09/16 06:39:45;;;;;;;10.38;4.30;;;;;;;;;;6099707;28;20129;-86
2023/09/16 06:42:51;;;;;;;6.75;4.22;;;;;;;;;;6119590;28;20039;-86
2023/09/16 06:45:53;;;;;;;5.28;3.97;;;;;;;;;;6118463;28;20043;-87
2023/09/16 06:48:58;;;;;;;4.82;3.58;;;;;;;;;;6112959;28;20097;-87
2023/09/16 06:51:59;;;;;;;6.25;3.90;;;;;;;;;;6121046;28;20467;-86
2023/09/16 06:55:01;;;;;;;5.63;3.78;;;;;;;;;;6138144;28;20046;-86
2023/09/16 06:58:06;;;;;;;8.37;3.90;;;;;;;;;;6114352;28;20098;-88
2023/09/16 07:01:12;;;;;;;5.15;3.50;;;;;;;;;;6127119;28;20993;-87
2023/09/16 07:04:16;;;;;;;10.32;4.32;;;;;;;;;;6121594;28;20525;-87
2023/09/16 07:07:23;;;;;;;6.67;3.93;;;;;;;;;;6134797;28;20058;-87
2023/09/16 07:10:25;;;;;;;8.02;4.07;;;;;;;;;;6137739;28;20031;-88
2023/09/16 07:13:27;;;;;;;5.97;3.93;;;;;;;;;;6175696;28;20032;-89
2023/09/16 07:16:40;;;;;;;6.28;3.97;;;;;;;;;;6167751;28;20528;-86
2023/09/16 07:19:43;;;;;;;5.18;4.05;;;;;;;;;;6135119;28;20537;-87
2023/09/16 07:22:45;;;;;;;5.07;3.97;;;;;;;;;;6147715;28;20166;-86
2023/09/16 07:25:58;;;;;;;6.20;3.97;;;;;;;;;;6138432;28;20039;-87
2023/09/16 07:29:00;;;;;;;5.72;4.20;;;;;;;;;;6147929;28;20059;-87
2023/09/16 07:32:05;;;;;;;5.60;3.60;;;;;;;;;;6116465;28;20058;-87
2023/09/16 07:35:07;;;;;;;5.90;3.92;;;;;;;;;;6145620;28;20040;-89
2023/09/16 07:38:09;;;;;;;6.22;4.22;;;;;;;;;;6106166;28;20054;-88
2023/09/16 07:41:11;;;;;;;5.57;4.00;;;;;;;;;;6132840;28;20048;-87
2023/09/16 07:44:14;;;;;;;6.37;4.60;;;;;;;;;;6125551;28;20038;-87
2023/09/16 07:47:16;;;;;;;6.05;3.83;;;;;;;;;;6135151;28;20047;-87
2023/09/16 07:50:18;;;;;;;6.20;4.10;;;;;;;;;;6119390;28;20058;-87
2023/09/16 07:53:21;;;;;;;4.40;4.00;;;;;;;;;;6135901;28;20043;-88
2023/09/16 07:56:23;;;;;;;5.22;3.95;;;;;;;;;;6115573;28;20051;-88
2023/09/16 07:59:26;;;;;;;5.17;3.90;;;;;;;;;;6134876;28;20055;-86
2023/09/16 08:02:31;;;;;;;6.53;3.85;;;;;;;;;;6131276;28;20581;-87
2023/09/16 08:05:33;;;;;;;4.70;3.80;;;;;;;;;;6115708;28;20410;-86
2023/09/16 08:08:37;;;;;;;4.82;3.70;;;;;;;;;;6115149;28;20510;-86
2023/09/16 08:11:39;;;;;;;6.15;3.83;;;;;;;;;;6135831;28;20149;-86
2023/09/16 08:14:41;;;;;;;4.85;4.15;;;;;;;;;;6122800;28;20247;-85
2023/09/16 08:17:43;;;;;;;4.38;3.60;;;;;;;;;;6137927;28;20051;-86
2023/09/16 08:20:45;;;;;;;4.03;3.63;;;;;;;;;;6134322;28;20122;-86
2023/09/16 08:23:50;;;;;;;6.25;3.65;;;;;;;;;;6115422;28;20094;-87
2023/09/16 08:26:53;;;;;;;6.38;4.30;;;;;;;;;;6145509;28;20232;-89
2023/09/16 08:29:55;;;;;;;4.72;3.80;;;;;;;;;;6118825;28;20148;-89
2023/09/16 08:32:59;;;;;;;4.13;3.67;;;;;;;;;;6078693;28;20043;-90
2023/09/16 08:36:02;;;;;;;3.70;3.40;;;;;;;;;;6133079;28;20055;-88
2023/09/16 08:39:04;;;;;;;6.53;3.63;;;;;;;;;;6132525;28;20055;-88
2023/09/16 08:42:21;;;;;;;4.40;4.00;;;;;;;;;;6108898;28;21046;-89
2023/09/16 08:45:27;;;;;;;3.92;3.47;;;;;;;;;;6116559;28;20065;-87
2023/09/16 08:48:34;;;;;;;5.32;3.47;;;;;;;;;;6100781;28;20070;-87
2023/09/16 08:51:41;;;;;;;4.00;3.53;;;;;;;;;;6107914;28;20054;-88
2023/09/16 08:54:47;;;;;;;5.20;3.58;;;;;;;;;;6128222;28;20054;-88
2023/09/16 08:57:53;;;;;;;3.80;3.33;;;;;;;;;;6119385;28;20330;-87
2023/09/16 09:00:55;;;;;;;4.45;3.83;;;;;;;;;;6124208;28;20042;-89
2023/09/16 09:04:00;;;;;;;4.68;3.60;;;;;;;;;;6101485;28;20348;-90
2023/09/16 09:07:02;;;;;;;4.18;3.25;;;;;;;;;;6131011;28;20059;-90
2023/09/16 09:10:05;;;;;;;4.20;3.55;;;;;;;;;;6105919;28;20134;-88
2023/09/16 09:13:13;;;;;;;4.85;3.50;;;;;;;;;;6103799;28;20458;-90
2023/09/16 09:16:18;;;;;;;4.05;3.40;;;;;;;;;;6109009;28;20060;-89
2023/09/16 09:19:21;;;;;;;4.32;3.65;;;;;;;;;;6127118;28;20039;-90
2023/09/16 09:22:24;;;;;;;3.90;3.50;;;;;;;;;;6115467;28;20185;-90
2023/09/16 09:25:32;;;;;;;5.00;3.85;;;;;;;;;;6130670;28;20081;-89
2023/09/16 09:28:34;;;;;;;4.93;3.40;;;;;;;;;;6112159;28;20051;-91
2023/09/16 09:31:40;;;;;;;4.05;3.33;;;;;;;;;;6123682;28;20115;-90
2023/09/16 09:34:44;;;;;;;4.07;3.67;;;;;;;;;;6089313;28;20082;-91
2023/09/16 09:37:47;;;;;;;4.63;4.20;;;;;;;;;;6128056;28;20047;-90
2023/09/16 09:40:59;;;;;;;3.90;3.50;;;;;;;;;;6120274;28;20399;-90
2023/09/16 09:44:04;;;;;;;4.47;3.60;;;;;;;;;;6126323;28;20044;-92
2023/09/16 09:47:12;;;;;;;4.22;3.70;;;;;;;;;;6129311;28;20032;-90
2023/09/16 09:50:20;;;;;;;4.38;3.40;;;;;;;;;;6120850;28;20442;-90
2023/09/16 09:53:23;;;;;;;4.90;3.53;;;;;;;;;;6099590;28;20062;-90
2023/09/16 09:56:25;;;;;;;4.03;3.60;;;;;;;;;;6129115;28;20043;-89
2023/09/16 09:59:27;;;;;;;4.15;3.60;;;;;;;;;;6122649;28;20075;-89
2023/09/16 10:02:30;;;;;;;5.28;4.18;;;;;;;;;;6117441;28;20052;-89
2023/09/16 10:05:35;;;;;;;4.07;3.67;;;;;;;;;;6102417;28;20379;-89
2023/09/16 10:08:37;;;;;;;4.20;3.80;;;;;;;;;;6098730;28;20522;-89
2023/09/16 10:11:41;;;;;;;4.35;3.45;;;;;;;;;;6126059;28;20078;-89
2023/09/16 10:14:42;;;;;;;3.95;3.58;;;;;;;;;;6117114;28;20047;-89
2023/09/16 10:17:45;;;;;;;3.83;3.42;;;;;;;;;;6110402;28;20503;-89
2023/09/16 10:20:48;;;;;;;3.63;3.33;;;;;;;;;;6100839;28;20130;-89
2023/09/16 10:23:53;;;;;;;3.90;3.50;;;;;;;;;;6127218;28;20047;-88
2023/09/16 10:27:00;;;;;;;4.82;3.80;;;;;;;;;;6105521;28;20052;-89
2023/09/16 10:30:07;;;;;;;6.38;3.92;;;;;;;;;;6122397;28;20051;-93
2023/09/16 10:33:11;;;;;;;5.22;4.22;;;;;;;;;;6092052;28;20044;-84
2023/09/16 10:36:14;;;;;;;4.95;4.45;;;;;;;;;;6128167;28;20052;-86
2023/09/16 10:39:17;;;;;;;5.28;4.38;;;;;;;;;;6126364;28;20086;-86
2023/09/16 10:42:20;;;;;;;5.95;4.45;;;;;;;;;;6125052;28;20616;-85
2023/09/16 10:45:22;;;;;;;4.60;4.20;;;;;;;;;;6125559;28;20534;-86
2023/09/16 10:48:24;;;;;;;5.35;4.32;;;;;;;;;;6122535;28;20561;-84
2023/09/16 10:51:28;;;;;;;4.78;4.20;;;;;;;;;;6130077;28;20047;-85
2023/09/16 10:54:41;;;;;;;4.65;4.15;;;;;;;;;;6120231;28;20083;-84
2023/09/16 10:57:49;;;;;;;4.82;4.30;;;;;;;;;;6111943;28;20180;-84
2023/09/16 11:00:54;;;;;;;4.80;4.25;;;;;;;;;;6131836;28;20809;-84
2023/09/16 11:04:07;;;;;;;5.07;4.30;;;;;;;;;;6121475;28;20525;-87
2023/09/16 11:07:10;;;;;;;5.70;4.40;;;;;;;;;;6125815;28;20438;-85
2023/09/16 11:10:13;;;;;;;5.57;4.40;;;;;;;;;;6133675;28;20050;-86
2023/09/16 11:13:15;;;;;;;4.53;4.10;;;;;;;;;;6127370;28;20055;-85
2023/09/16 11:16:19;;;;;;;5.53;4.68;;;;;;;;;;6133779;28;20134;-85
2023/09/16 11:19:28;;;;;;;5.05;4.55;;;;;;;;;;6131207;28;20081;-86
2023/09/16 11:22:31;;;;;;;5.85;4.60;;;;;;;;;;6148908;28;20050;-88
2023/09/16 11:25:35;;;;;;;5.38;4.88;;;;;;;;;;6126232;28;20046;-88
2023/09/16 11:28:36;;;;;;;5.60;4.53;;;;;;;;;;6118740;28;20126;-87
2023/09/16 11:31:38;;;;;;;5.72;4.35;;;;;;;;;;6146976;28;20072;-85
2023/09/16 11:34:42;;;;;;;5.97;4.63;;;;;;;;;;6124402;28;20182;-87
2023/09/16 11:37:43;;;;;;;5.03;4.47;;;;;;;;;;6128134;28;20039;-86
2023/09/16 11:40:45;;;;;;;5.88;4.68;;;;;;;;;;6146627;28;20046;-88
2023/09/16 11:43:47;;;;;;;5.43;4.50;;;;;;;;;;6130636;28;20058;-89
2023/09/16 11:46:50;;;;;;;5.60;4.97;;;;;;;;;;6141573;28;20050;-87
2023/09/16 11:49:52;;;;;;;7.82;4.75;;;;;;;;;;6136531;28;20142;-88
2023/09/16 11:52:54;;;;;;;5.32;4.63;;;;;;;;;;6136093;28;20046;-87
2023/09/16 11:55:56;;;;;;;5.95;4.50;;;;;;;;;;6125251;28;20204;-89
2023/09/16 11:58:58;;;;;;;;;;;;;;;;;;6126259;28;20055;-88
2023/09/16 12:02:00;;;;;;;6.10;5.50;;;;;;;;;;6128848;28;19929;-86
2023/09/16 12:05:04;;;;;;;5.57;4.88;;;;;;;;;;6146272;28;20056;-83
2023/09/16 12:08:06;;;;;;;5.53;4.63;;;;;;;;;;6125256;28;20040;-84
2023/09/16 12:11:09;;;;;;;5.25;4.75;;;;;;;;;;6128983;28;20050;-86
2023/09/16 12:14:12;;;;;;;5.38;4.88;;;;;;;;;;6125801;28;20053;-85
2023/09/16 12:17:15;;;;;;;4.88;4.38;;;;;;;;;;6124623;28;20227;-85
2023/09/16 12:20:17;;;;;;;4.93;4.43;;;;;;;;;;6148961;28;20040;-84
2023/09/16 12:23:19;;;;;;;4.85;4.45;;;;;;;;;;6159596;28;20043;-84
2023/09/16 12:26:21;;;;;;;5.13;4.63;;;;;;;;;;6139896;28;20079;-84
2023/09/16 12:29:22;;;;;;;5.93;5.20;;;;;;;;;;6142213;28;20545;-84
2023/09/16 12:32:25;;;;;;;5.80;4.75;;;;;;;;;;6123616;28;20090;-85
2023/09/16 12:35:27;;;;;;;4.47;4.07;;;;;;;;;;6128376;28;20061;-84
2023/09/16 12:38:38;;;;;;;5.10;4.55;;;;;;;;;;6146513;28;20050;-85
2023/09/16 12:41:40;;;;;;;5.00;4.50;;;;;;;;;;6125762;28;20423;-88
2023/09/16 12:44:42;;;;;;;5.32;4.82;;;;;;;;;;6130397;28;20510;-88
2023/09/16 12:47:44;;;;;;;4.85;4.45;;;;;;;;;;6115127;28;20070;-87
2023/09/16 12:50:46;;;;;;;6.90;4.57;;;;;;;;;;6109531;29;20044;-87
2023/09/16 12:53:52;;;;;;;4.88;4.40;;;;;;;;;;6104432;28;20055;-87
2023/09/16 12:56:54;;;;;;;5.22;4.68;;;;;;;;;;6110381;28;20043;-88
2023/09/16 13:00:03;;;;;;;5.53;4.85;;;;;;;;;;6107503;28;20283;-86
2023/09/16 13:03:06;;;;;;;5.72;4.43;;;;;;;;;;6090888;28;20054;-87
2023/09/16 13:06:07;;;;;;;5.55;5.00;;;;;;;;;;6096476;28;20411;-86
2023/09/16 13:09:11;;;;;;;4.43;4.03;;;;;;;;;;6115005;28;20058;-87
2023/09/16 13:12:13;;;;;;;4.72;4.25;;;;;;;;;;6133792;28;20065;-87
2023/09/16 13:15:21;;;;;;;4.97;4.47;;;;;;;;;;6133725;28;20040;-87
2023/09/16 13:18:24;;;;;;;4.28;3.95;;;;;;;;;;6129720;28;20150;-88
2023/09/16 13:21:34;;;;;;;5.38;4.70;;;;;;;;;;6144076;28;20047;-87
2023/09/16 13:24:43;;;;;;;5.93;4.22;;;;;;;;;;6148157;28;20051;-88
2023/09/16 13:27:45;;;;;;;6.68;4.60;;;;;;;;;;6140687;28;20099;-89
2023/09/16 13:30:57;;;;;;;4.72;4.32;;;;;;;;;;6146345;28;20048;-88
2023/09/16 13:34:00;;;;;;;4.85;4.45;;;;;;;;;;6120507;28;20047;-88
2023/09/16 13:37:03;;;;;;;5.10;4.30;;;;;;;;;;6128091;28;20043;-88
2023/09/16 13:40:09;;;;;;;4.75;4.35;;;;;;;;;;6130712;28;20090;-88
2023/09/16 13:43:13;;;;;;;4.72;4.32;;;;;;;;;;6126992;28;20055;-87
2023/09/16 13:46:16;;;;;;;4.95;4.35;;;;;;;;;;6130593;28;20052;-87
2023/09/16 13:49:18;;;;;;;5.03;4.53;;;;;;;;;;6124053;28;20051;-87
2023/09/16 13:52:20;;;;;;;5.78;4.82;;;;;;;;;;6116479;28;20052;-89
2023/09/16 13:55:22;;;;;;;5.47;4.85;;;;;;;;;;6139897;28;20502;-88
2023/09/16 13:58:26;;;;;;;5.00;4.50;;;;;;;;;;6125120;28;20047;-85
2023/09/16 14:01:27;;;;;;;5.20;4.40;;;;;;;;;;6133311;28;20525;-85
2023/09/16 14:04:29;;;;;;;5.10;3.90;;;;;;;;;;6140205;28;20047;-85
2023/09/16 14:07:31;;;;;;;4.47;3.88;;;;;;;;;;6133257;28;20654;-85
2023/09/16 14:10:33;;;;;;;4.40;3.78;;;;;;;;;;6133915;28;20163;-85
2023/09/16 14:13:34;;;;;;;4.00;3.70;;;;;;;;;;6149737;28;20054;-84
2023/09/16 14:16:36;;;;;;;5.22;4.20;;;;;;;;;;6145112;28;20051;-85
2023/09/16 14:19:40;;;;;;;4.38;3.97;;;;;;;;;;6159498;28;20055;-85
2023/09/16 14:22:42;;;;;;;4.05;3.75;;;;;;;;;;6135180;28;20506;-85
2023/09/16 14:25:44;;;;;;;4.43;3.95;;;;;;;;;;6120257;28;20040;-85
2023/09/16 14:28:46;;;;;;;4.72;4.28;;;;;;;;;;6133300;28;20051;-86
2023/09/16 14:31:48;;;;;;;5.43;4.70;;;;;;;;;;6115384;28;20119;-88
2023/09/16 14:34:50;;;;;;;4.28;3.85;;;;;;;;;;6136231;28;20126;-85
2023/09/16 14:37:55;;;;;;;5.55;3.92;;;;;;;;;;6133564;28;20044;-88
2023/09/16 14:41:03;;;;;;;3.90;3.50;;;;;;;;;;6120180;28;20043;-84
2023/09/16 14:44:05;;;;;;;4.40;3.70;;;;;;;;;;6131470;28;20043;-85
2023/09/16 14:47:07;;;;;;;4.97;4.40;;;;;;;;;;6154845;28;20480;-85
2023/09/16 14:50:10;;;;;;;4.45;4.03;;;;;;;;;;6157248;28;20622;-86
2023/09/16 14:53:12;;;;;;;4.85;4.35;;;;;;;;;;6130648;28;20047;-86
2023/09/16 14:56:14;;;;;;;;;;;;;;;;;;6130553;28;20129;-89
2023/09/16 14:59:16;;;;;;;5.13;4.40;;;;;;;;;;6150501;28;19917;-87
2023/09/16 15:02:18;;;;;;;4.05;3.65;;;;;;;;;;6172882;28;20095;-87
2023/09/16 15:05:20;;;;;;;4.22;3.83;;;;;;;;;;6123593;28;20525;-87
2023/09/16 15:08:22;;;;;;;4.15;3.75;;;;;;;;;;6127305;28;20117;-88
2023/09/16 15:11:27;;;;;;;3.92;3.53;;;;;;;;;;6135723;28;20051;-88
2023/09/16 15:14:31;;;;;;;4.53;3.50;;;;;;;;;;6127440;28;20054;-87
2023/09/16 15:17:33;;;;;;;;;;;;;;;;;;6149906;28;20066;-89
2023/09/16 15:20:35;;;;;;;9.10;4.13;;;;;;;;;;6141423;28;19926;-88
2023/09/16 15:23:37;;;;;;;4.03;3.42;;;;;;;;;;6130749;28;20059;-89
2023/09/16 15:26:39;;;;;;;4.20;3.80;;;;;;;;;;6129871;28;20130;-88
2023/09/16 15:29:41;;;;;;;4.40;4.00;;;;;;;;;;6145069;28;20051;-88
2023/09/16 15:32:43;;;;;;;4.47;3.80;;;;;;;;;;6120072;28;20071;-87
2023/09/16 15:35:48;;;;;;;5.07;3.85;;;;;;;;;;6137576;28;20127;-87
2023/09/16 15:38:50;;;;;;;4.18;3.78;;;;;;;;;;6108682;28;20075;-91
2023/09/16 15:41:54;;;;;;;4.70;3.80;;;;;;;;;;6123337;28;20495;-87
2023/09/16 15:44:56;;;;;;;4.05;3.72;;;;;;;;;;6118550;28;20414;-88
2023/09/16 15:47:59;;;;;;;4.88;3.95;;;;;;;;;;6105425;28;20225;-88
2023/09/16 15:51:01;;;;;;;;;;;;;;;;;;6128153;28;20047;-88
2023/09/16 15:54:03;;;;;;;4.57;3.90;;;;;;;;;;6115297;28;19923;-87
2023/09/16 15:57:05;;;;;;;4.85;4.00;;;;;;;;;;6117014;28;21716;-87
2023/09/16 16:00:08;;;;;;;4.53;4.13;;;;;;;;;;6106980;28;20582;-86
2023/09/16 16:03:10;;;;;;;5.25;4.10;;;;;;;;;;6125468;28;20122;-88
2023/09/16 16:06:14;;;;;;;5.20;4.05;;;;;;;;;;6130319;28;20069;-88
2023/09/16 16:09:16;;;;;;;5.88;4.43;;;;;;;;;;6134665;28;20523;-88
2023/09/16 16:12:20;;;;;;;4.65;4.20;;;;;;;;;;6111791;28;20105;-88
2023/09/16 16:15:24;;;;;;;6.47;4.40;;;;;;;;;;6112065;28;20059;-86
2023/09/16 16:18:26;;;;;;;4.40;3.95;;;;;;;;;;6124751;28;20419;-87
2023/09/16 16:21:28;;;;;;;6.32;4.18;;;;;;;;;;6125158;28;20491;-86
2023/09/16 16:24:31;;;;;;;5.90;4.70;;;;;;;;;;6145745;28;20039;-86
2023/09/16 16:27:33;;;;;;;5.20;4.63;;;;;;;;;;6108771;28;20089;-86
2023/09/16 16:30:35;;;;;;;5.22;4.70;;;;;;;;;;6136787;28;20046;-86
2023/09/16 16:33:37;;;;;;;5.20;4.68;;;;;;;;;;6117430;28;20062;-86
2023/09/16 16:36:39;;;;;;;4.70;4.30;;;;;;;;;;6127650;28;20130;-87
2023/09/16 16:39:41;;;;;;;4.82;4.28;;;;;;;;;;6131722;28;20786;-87
2023/09/16 16:42:47;;;;;;;5.68;4.70;;;;;;;;;;6117967;28;20120;-87
2023/09/16 16:45:49;;;;;;;7.10;4.65;;;;;;;;;;6134712;28;20039;-85
2023/09/16 16:48:51;;;;;;;6.15;5.22;;;;;;;;;;6124998;28;20051;-86
2023/09/16 16:51:52;;;;;;;5.13;4.60;;;;;;;;;;6142768;28;20049;-87
2023/09/16 16:54:54;;;;;;;5.57;4.97;;;;;;;;;;6131312;28;20039;-86
2023/09/16 16:57:56;;;;;;;5.28;4.35;;;;;;;;;;6125643;28;20054;-87
2023/09/16 17:00:59;;;;;;;7.65;5.00;;;;;;;;;;6116467;28;20129;-87
2023/09/16 17:04:04;;;;;;;5.55;4.90;;;;;;;;;;6140114;28;20055;-86
2023/09/16 17:07:08;;;;;;;7.60;5.00;;;;;;;;;;6131166;28;20058;-86
2023/09/16 17:10:11;;;;;;;5.57;4.78;;;;;;;;;;6107401;28;20075;-86
2023/09/16 17:13:13;;;;;;;6.20;5.03;;;;;;;;;;6140394;28;20055;-86
2023/09/16 17:16:15;;;;;;;7.18;4.90;;;;;;;;;;6148235;28;20051;-86
2023/09/16 17:19:17;;;;;;;5.75;5.05;;;;;;;;;;6134978;28;20079;-85
2023/09/16 17:22:19;;;;;;;7.32;5.53;;;;;;;;;;6129064;28;20523;-86
2023/09/16 17:25:21;;;;;;;8.95;5.00;;;;;;;;;;6105781;28;20077;-85
2023/09/16 17:28:26;;;;;;;5.55;4.93;;;;;;;;;;6123128;28;21446;-86
2023/09/16 17:31:29;;;;;;;9.05;5.20;;;;;;;;;;6131558;28;20517;-87
2023/09/16 17:34:31;;;;;;;5.70;5.00;;;;;;;;;;6118151;28;20560;-87
2023/09/16 17:37:36;;;;;;;7.85;4.97;;;;;;;;;;6120876;28;20070;-88
2023/09/16 17:40:38;;;;;;;6.38;5.30;;;;;;;;;;6160603;28;20196;-89
2023/09/16 17:43:40;;;;;;;7.55;5.50;;;;;;;;;;6153283;28;20055;-88
2023/09/16 17:46:43;;;;;;;6.65;5.00;;;;;;;;;;6128954;28;20054;-87
2023/09/16 17:49:49;;;;;;;5.93;4.80;;;;;;;;;;6124434;28;20047;-87
2023/09/16 17:52:55;;;;;;;5.90;5.22;;;;;;;;;;6133281;28;20089;-87
2023/09/16 17:55:57;;;;;;;8.82;5.70;;;;;;;;;;6128811;28;20499;-88
2023/09/16 17:58:59;;;;;;;10.00;6.18;;;;;;;;;;6124531;28;20055;-88
2023/09/16 18:02:04;;;;;;;7.05;5.65;;;;;;;;;;6118187;28;20507;-88
2023/09/16 18:05:06;;;;;;;7.22;5.60;;;;;;;;;;6118129;28;20043;-87
2023/09/16 18:08:08;;;;;;;6.78;5.72;;;;;;;;;;6135836;28;20048;-88
2023/09/16 18:11:11;;;;;;;8.10;5.85;;;;;;;;;;6128908;28;20416;-88
2023/09/16 18:14:13;;;;;;;8.50;5.80;;;;;;;;;;6130034;28;20062;-87
2023/09/16 18:17:16;;;;;;;6.63;5.70;;;;;;;;;;6141779;28;20047;-88
2023/09/16 18:20:19;;;;;;;14.10;7.80;;;;;;;;;;6127444;28;20052;-91
2023/09/16 18:23:21;;;;;;;9.57;7.70;;;;;;;;;;6108163;28;20742;-87